Time;durP1;ratioP1;P1;durP2;ratioP2;P2;SDS_P1;SDS_P2;PMS_P1;PMS_P2;Temp;Humidity;BMP_temperature;BMP_pressure;BME280_temperature;BME280_humidity;BME280_pressure;Samples;Min_cycle;Max_cycle;Signal;HPM_P1;HPM_P2
2021/07/18 00:01:54;;;;;;;16.12;12.47;;;;;;;22.73;89.95;99297.71;1634955;86;21115;-73
2021/07/18 00:04:21;;;;;;;15.55;11.95;;;;;;;22.78;89.57;99291.21;1633494;85;21571;-75
2021/07/18 00:06:49;;;;;;;13.58;12.18;;;;;;;22.79;89.27;99291.41;1648965;86;21510;-75
2021/07/18 00:09:17;;;;;;;16.62;11.30;;;;;;;22.79;89.41;99288.11;1650498;86;21562;-76
2021/07/18 00:11:45;;;;;;;20.82;11.73;;;;;;;22.82;89.52;99287.45;1663876;85;21549;-77
2021/07/18 00:14:11;;;;;;;14.50;12.68;;;;;;;22.86;89.37;99284.24;1632296;86;21041;-75
2021/07/18 00:16:39;;;;;;;17.85;10.78;;;;;;;22.90;89.25;99282.42;1643986;86;21048;-75
2021/07/18 00:19:07;;;;;;;16.27;11.00;;;;;;;22.96;88.93;99270.66;1641619;86;21101;-74
2021/07/18 00:21:35;;;;;;;17.15;11.65;;;;;;;23.02;88.46;99267.33;1642034;86;21031;-75
2021/07/18 00:24:03;;;;;;;15.88;12.37;;;;;;;23.09;87.85;99271.45;1668734;86;21042;-74
2021/07/18 00:26:30;;;;;;;14.33;11.85;;;;;;;23.11;87.22;99274.66;1649447;86;21105;-74
2021/07/18 00:28:56;;;;;;;21.23;13.75;;;;;;;23.09;87.02;99277.73;1641304;87;22438;-75
2021/07/18 00:31:23;;;;;;;16.85;13.15;;;;;;;22.86;88.61;99273.84;1662953;86;21975;-75
2021/07/18 00:33:50;;;;;;;17.12;14.03;;;;;;;22.71;89.98;99267.08;1656176;85;21530;-75
2021/07/18 00:36:16;;;;;;;16.97;13.58;;;;;;;22.60;90.95;99263.94;1642171;87;20945;-75
2021/07/18 00:38:43;;;;;;;15.18;13.68;;;;;;;22.58;91.58;99270.34;1643561;86;21092;-74
2021/07/18 00:41:09;;;;;;;18.30;14.73;;;;;;;22.57;91.83;99261.08;1623115;87;21649;-74
2021/07/18 00:43:35;;;;;;;16.48;13.15;;;;;;;22.56;92.06;99265.77;1653413;85;21799;-76
2021/07/18 00:46:02;;;;;;;18.30;15.95;;;;;;;22.51;91.96;99261.86;1651314;85;21036;-73
2021/07/18 00:48:31;;;;;;;14.93;13.22;;;;;;;22.45;92.69;99269.27;1639105;86;20934;-75
2021/07/18 00:50:58;;;;;;;16.52;13.85;;;;;;;22.43;92.84;99270.99;1625079;88;21089;-74
2021/07/18 00:53:24;;;;;;;16.10;13.32;;;;;;;22.33;93.00;99277.45;1621803;86;21529;-72
2021/07/18 00:55:51;;;;;;;17.15;13.20;;;;;;;22.20;93.99;99271.14;1678649;85;21366;-71
2021/07/18 00:58:17;;;;;;;19.65;15.05;;;;;;;22.13;95.02;99270.88;1649856;85;21001;-71
2021/07/18 01:00:43;;;;;;;20.12;14.47;;;;;;;22.18;95.72;99265.99;1637799;85;21581;-72
2021/07/18 01:03:09;;;;;;;16.93;13.80;;;;;;;22.28;95.19;99258.48;1662217;84;21055;-72
2021/07/18 01:05:36;;;;;;;17.90;13.95;;;;;;;22.37;94.45;99257.83;1660868;85;21063;-71
2021/07/18 01:08:05;;;;;;;17.62;14.98;;;;;;;22.36;94.15;99258.39;1685924;84;21443;-72
2021/07/18 01:10:33;;;;;;;22.85;15.68;;;;;;;22.35;94.35;99246.42;1679190;85;21528;-72
2021/07/18 01:12:59;;;;;;;22.90;15.10;;;;;;;22.36;94.15;99235.10;1653948;85;21064;-72
2021/07/18 01:15:26;;;;;;;21.93;15.88;;;;;;;22.43;93.54;99245.52;1641145;85;21035;-72
2021/07/18 01:17:52;;;;;;;20.88;14.23;;;;;;;22.48;92.93;99234.34;1613375;86;21096;-70
2021/07/18 01:20:18;;;;;;;20.68;16.77;;;;;;;22.54;92.42;99239.25;1609214;87;21107;-72
2021/07/18 01:22:45;;;;;;;25.45;16.85;;;;;;;22.61;91.56;99242.81;1649618;85;20960;-71
2021/07/18 01:25:13;;;;;;;17.32;15.50;;;;;;;22.65;90.90;99232.77;1668894;84;21004;-71
2021/07/18 01:27:40;;;;;;;16.67;14.87;;;;;;;22.69;90.54;99238.35;1689531;84;21016;-72
2021/07/18 01:30:08;;;;;;;24.47;15.00;;;;;;;22.70;90.23;99239.96;1641239;86;21048;-72
2021/07/18 01:32:36;;;;;;;31.25;15.20;;;;;;;22.70;89.97;99234.48;1666468;85;21072;-71
2021/07/18 01:35:04;;;;;;;16.10;14.43;;;;;;;22.72;89.73;99239.90;1651332;86;22220;-73
2021/07/18 01:37:30;;;;;;;20.95;14.85;;;;;;;22.69;89.56;99243.27;1661730;86;21010;-72
2021/07/18 01:39:59;;;;;;;24.30;15.40;;;;;;;22.67;89.50;99229.69;1660909;86;20980;-72
2021/07/18 01:42:25;;;;;;;20.62;15.48;;;;;;;22.61;89.59;99239.50;1637428;85;21080;-71
2021/07/18 01:44:53;;;;;;;21.95;14.70;;;;;;;22.58;89.73;99247.05;1670983;84;20957;-71
2021/07/18 01:47:19;;;;;;;18.65;14.55;;;;;;;22.51;90.06;99245.42;1684266;85;21012;-71
2021/07/18 01:49:46;;;;;;;24.92;14.78;;;;;;;22.50;90.03;99249.30;1673758;84;21040;-71
2021/07/18 01:52:12;;;;;;;18.60;16.55;;;;;;;22.48;90.10;99248.85;1635180;85;21118;-72
2021/07/18 01:54:39;;;;;;;21.25;15.30;;;;;;;22.47;90.06;99250.55;1657943;84;21123;-71
2021/07/18 01:57:14;;;;;;;16.97;14.47;;;;;;;22.46;90.13;99248.94;1664889;85;21170;-71
2021/07/18 01:59:40;;;;;;;20.48;14.98;;;;;;;22.41;90.37;99255.44;1640587;86;21045;-72
2021/07/18 02:02:07;;;;;;;14.95;12.80;;;;;;;22.44;89.72;99250.67;1639543;87;21061;-71
2021/07/18 02:04:33;;;;;;;22.98;14.47;;;;;;;22.46;88.86;99251.69;1642665;85;21091;-71
2021/07/18 02:07:01;;;;;;;24.90;15.15;;;;;;;22.42;89.93;99254.31;1671661;85;22258;-72
2021/07/18 02:09:29;;;;;;;27.45;15.00;;;;;;;22.35;90.44;99258.16;1646574;85;21000;-72
2021/07/18 02:11:56;;;;;;;19.80;14.50;;;;;;;22.28;91.07;99257.92;1664540;85;21017;-73
2021/07/18 02:14:22;;;;;;;23.47;15.13;;;;;;;22.24;91.24;99247.41;1647781;85;21035;-72
2021/07/18 02:16:50;;;;;;;22.87;15.72;;;;;;;22.20;91.45;99243.75;1644946;87;21521;-72
2021/07/18 02:19:17;;;;;;;19.85;15.40;;;;;;;22.20;91.37;99248.42;1648817;85;21041;-71
2021/07/18 02:21:43;;;;;;;22.07;16.10;;;;;;;22.18;91.37;99235.05;1672020;85;21065;-72
2021/07/18 02:24:10;;;;;;;19.05;14.70;;;;;;;22.20;91.40;99238.27;1650563;85;20945;-71
2021/07/18 02:26:37;;;;;;;21.40;14.55;;;;;;;22.18;91.41;99236.42;1644995;87;21147;-71
2021/07/18 02:29:04;;;;;;;18.32;15.25;;;;;;;22.22;89.99;99241.45;1643623;87;21013;-73
2021/07/18 02:31:31;;;;;;;21.95;15.65;;;;;;;22.25;90.09;99241.37;1618374;88;21055;-72
2021/07/18 02:33:58;;;;;;;21.35;14.87;;;;;;;22.23;90.91;99240.89;1661134;85;21543;-73
2021/07/18 02:36:24;;;;;;;27.67;15.65;;;;;;;22.20;91.04;99251.16;1653614;85;21553;-73
2021/07/18 02:38:54;;;;;;;18.70;15.13;;;;;;;22.18;91.15;99245.45;1672117;85;21120;-72
2021/07/18 02:41:20;;;;;;;26.62;16.50;;;;;;;22.14;91.35;99248.63;1644851;87;21033;-71
2021/07/18 02:43:46;;;;;;;23.57;13.95;;;;;;;22.10;91.71;99253.75;1664300;85;21524;-73
2021/07/18 02:46:14;;;;;;;26.45;14.40;;;;;;;22.07;92.06;99254.41;1667597;85;39301;-73
2021/07/18 02:48:42;;;;;;;30.75;15.58;;;;;;;22.05;92.17;99258.88;1579234;90;21053;-72
2021/07/18 02:51:08;;;;;;;18.17;14.50;;;;;;;22.09;92.30;99263.10;1574749;91;21098;-73
2021/07/18 02:53:35;;;;;;;19.73;15.03;;;;;;;22.16;90.75;99261.97;1563483;89;21554;-73
2021/07/18 02:56:01;;;;;;;21.87;13.62;;;;;;;22.22;90.33;99262.00;1573279;89;21573;-72
2021/07/18 02:58:28;;;;;;;22.75;15.20;;;;;;;22.18;91.20;99255.60;1598852;89;21117;-73
2021/07/18 03:00:54;;;;;;;17.23;14.15;;;;;;;22.12;91.74;99246.78;1599471;87;21056;-72
2021/07/18 03:03:20;;;;;;;23.60;16.35;;;;;;;22.07;92.11;99242.08;1601998;88;21069;-72
2021/07/18 03:05:47;;;;;;;28.47;16.77;;;;;;;22.03;92.55;99242.53;1599486;89;21095;-73
2021/07/18 03:08:13;;;;;;;25.23;15.88;;;;;;;22.00;92.76;99241.27;1573068;89;21068;-71
2021/07/18 03:10:40;;;;;;;20.57;15.98;;;;;;;21.99;93.00;99247.88;1577257;89;21186;-70
2021/07/18 03:13:08;;;;;;;25.10;16.42;;;;;;;21.99;93.11;99241.04;1595424;88;21616;-72
2021/07/18 03:15:34;;;;;;;22.98;14.47;;;;;;;22.01;92.88;99244.25;1622821;87;21045;-72
2021/07/18 03:18:02;;;;;;;18.30;13.72;;;;;;;22.06;92.38;99241.28;1598866;89;21103;-72
2021/07/18 03:20:29;;;;;;;23.32;15.45;;;;;;;22.11;92.43;99243.00;1580168;89;21129;-72
2021/07/18 03:22:55;;;;;;;19.35;15.75;;;;;;;22.16;92.46;99244.16;1575423;89;21045;-72
2021/07/18 03:25:21;;;;;;;19.75;16.23;;;;;;;22.26;92.01;99242.38;1548737;91;21056;-73
2021/07/18 03:27:48;;;;;;;27.17;15.45;;;;;;;22.33;91.28;99248.13;1577831;88;21088;-72
2021/07/18 03:30:16;;;;;;;22.77;15.88;;;;;;;22.41;90.79;99246.41;1610184;88;21602;-72
2021/07/18 03:32:43;;;;;;;23.60;15.35;;;;;;;22.52;90.21;99242.92;1621929;88;21028;-71
2021/07/18 03:35:10;;;;;;;27.48;17.85;;;;;;;22.59;89.69;99243.14;1606997;87;21311;-71
2021/07/18 03:37:37;;;;;;;27.70;16.27;;;;;;;22.64;89.39;99240.75;1599790;89;21072;-71
2021/07/18 03:40:11;;;;;;;23.67;16.15;;;;;;;22.77;88.83;99247.09;1598929;89;21029;-71
2021/07/18 03:42:38;;;;;;;;;;;;;;;22.92;88.08;99245.86;1613516;88;21128;-72
2021/07/18 03:45:06;;;;;;;22.75;15.43;;;;;;;23.02;87.27;99249.50;1622481;87;20161;-72
2021/07/18 03:47:32;;;;;;;19.50;16.12;;;;;;;23.06;87.06;99248.26;1599636;89;21071;-72
2021/07/18 03:49:59;;;;;;;19.80;17.12;;;;;;;23.10;86.46;99238.20;1572261;89;21101;-73
2021/07/18 03:52:26;;;;;;;21.60;15.85;;;;;;;23.19;85.89;99241.61;1561685;89;21632;-72
2021/07/18 03:54:52;;;;;;;34.92;18.27;;;;;;;23.26;85.87;99239.08;1590266;88;21029;-72
2021/07/18 03:57:18;;;;;;;28.60;16.12;;;;;;;23.33;85.18;99239.31;1625582;87;21084;-72
2021/07/18 03:59:45;;;;;;;20.15;15.45;;;;;;;23.32;84.81;99244.57;1610399;88;21224;-73
2021/07/18 04:02:11;;;;;;;19.10;14.00;;;;;;;23.30;85.28;99239.21;1618403;84;21576;-72
2021/07/18 04:04:37;;;;;;;29.45;16.23;;;;;;;23.37;84.70;99236.67;1691567;84;20984;-71
2021/07/18 04:07:05;;;;;;;30.52;15.23;;;;;;;23.37;84.63;99228.44;1691940;84;20968;-72
2021/07/18 04:09:32;;;;;;;20.32;16.32;;;;;;;23.36;84.83;99230.38;1677224;84;21035;-71
2021/07/18 04:11:59;;;;;;;25.43;17.50;;;;;;;23.38;84.73;99233.59;1638988;84;21143;-71
2021/07/18 04:14:25;;;;;;;25.12;17.00;;;;;;;23.42;84.81;99226.83;1636910;87;21539;-72
2021/07/18 04:16:52;;;;;;;24.50;17.32;;;;;;;23.44;84.71;99228.66;1577361;89;21064;-70
2021/07/18 04:19:19;;;;;;;18.10;15.85;;;;;;;23.47;84.74;99222.50;1636032;86;21039;-71
2021/07/18 04:21:45;;;;;;;31.48;16.85;;;;;;;;;;1634734;87;21083;-71
2021/07/18 04:24:12;;;;;;;29.42;17.10;;;;;;;23.55;84.48;99229.02;1685231;85;21240;-72
2021/07/18 04:26:39;;;;;;;23.10;15.60;;;;;;;23.61;84.38;99226.23;1690491;84;21023;-72
2021/07/18 04:29:05;;;;;;;22.10;15.00;;;;;;;23.66;84.17;99232.86;1685826;84;21143;-72
2021/07/18 04:31:31;;;;;;;30.77;25.10;;;;;;;23.71;84.34;99234.00;1671552;85;21604;-72
2021/07/18 04:33:58;;;;;;;25.00;17.45;;;;;;;23.80;83.77;99243.69;1689684;84;21007;-71
2021/07/18 04:36:24;;;;;;;22.95;17.15;;;;;;;23.87;83.81;99249.98;1689480;85;21751;-71
2021/07/18 04:38:51;;;;;;;27.93;17.15;;;;;;;23.94;83.72;99247.98;1655853;85;21584;-72
2021/07/18 04:41:17;;;;;;;23.00;15.85;;;;;;;23.99;83.21;99249.11;1666015;85;20993;-72
2021/07/18 04:43:44;;;;;;;25.20;17.87;;;;;;;24.02;82.90;99260.23;1689493;85;21088;-72
2021/07/18 04:46:12;;;;;;;21.15;15.50;;;;;;;24.07;83.42;99259.18;1689636;84;21068;-71
2021/07/18 04:48:38;;;;;;;31.60;18.15;;;;;;;24.18;82.58;99258.34;1676626;84;21575;-72
2021/07/18 04:51:04;;;;;;;21.35;16.90;;;;;;;24.23;82.41;99252.59;1639352;85;20976;-72
2021/07/18 04:53:31;;;;;;;21.68;16.45;;;;;;;24.29;81.99;99255.89;1657035;85;21020;-73
2021/07/18 04:55:58;;;;;;;20.15;17.23;;;;;;;24.30;81.75;99257.49;1667761;85;21573;-71
2021/07/18 04:58:24;;;;;;;26.70;18.48;;;;;;;24.31;81.63;99254.41;1676494;84;21053;-72
2021/07/18 05:00:50;;;;;;;20.77;17.95;;;;;;;24.36;81.26;99255.30;1645717;85;21129;-71
2021/07/18 05:03:17;;;;;;;28.57;18.05;;;;;;;24.38;81.18;99255.72;1653163;86;20997;-72
2021/07/18 05:05:44;;;;;;;35.73;19.25;;;;;;;24.40;80.90;99261.11;1635851;86;21071;-72
2021/07/18 05:08:10;;;;;;;22.87;16.67;;;;;;;24.44;80.54;99260.63;1636919;86;21064;-73
2021/07/18 05:10:36;;;;;;;20.25;16.07;;;;;;;24.57;80.20;99253.09;1645168;86;21063;-73
2021/07/18 05:13:03;;;;;;;24.23;17.92;;;;;;;24.63;79.93;99251.12;1654625;86;21238;-73
2021/07/18 05:15:29;;;;;;;22.40;17.17;;;;;;;24.71;79.30;99254.27;1635923;86;21043;-72
2021/07/18 05:17:58;;;;;;;28.98;19.05;;;;;;;24.74;78.90;99249.44;1649754;86;21023;-72
2021/07/18 05:20:25;;;;;;;22.42;18.90;;;;;;;24.76;78.88;99253.20;1631457;86;21088;-71
2021/07/18 05:22:52;;;;;;;27.93;19.52;;;;;;;24.78;78.78;99259.16;1649747;86;21068;-72
2021/07/18 05:25:18;;;;;;;25.65;17.00;;;;;;;24.84;78.62;99262.45;1629855;86;21066;-71
2021/07/18 05:27:44;;;;;;;22.50;15.83;;;;;;;24.93;78.41;99272.15;1658388;86;21032;-72
2021/07/18 05:30:12;;;;;;;27.77;17.30;;;;;;;25.04;78.24;99266.31;1658303;86;20964;-73
2021/07/18 05:32:39;;;;;;;18.65;14.05;;;;;;;25.14;77.70;99259.47;1642396;86;21063;-72
2021/07/18 05:35:07;;;;;;;19.60;17.42;;;;;;;25.23;77.28;99259.30;1631773;87;21040;-74
2021/07/18 05:37:34;;;;;;;20.82;17.17;;;;;;;25.36;76.47;99267.66;1628823;86;21027;-72
2021/07/18 05:40:02;;;;;;;24.23;17.75;;;;;;;25.51;75.73;99272.34;1658475;86;21052;-73
2021/07/18 05:42:29;;;;;;;23.27;17.27;;;;;;;25.56;75.29;99268.73;1616206;86;21103;-72
2021/07/18 05:44:55;;;;;;;23.90;17.50;;;;;;;25.63;74.80;99267.30;1631078;86;21072;-71
2021/07/18 05:47:22;;;;;;;24.82;18.42;;;;;;;25.66;74.33;99269.36;1631469;87;21040;-73
2021/07/18 05:49:48;;;;;;;25.70;18.07;;;;;;;25.70;74.75;99265.52;1631449;87;22069;-73
2021/07/18 05:52:15;;;;;;;31.80;19.12;;;;;;;25.80;74.55;99260.02;1603464;88;21568;-73
2021/07/18 05:54:41;;;;;;;18.45;16.52;;;;;;;25.88;74.05;99266.69;1651370;86;21198;-71
2021/07/18 05:57:08;;;;;;;20.32;16.35;;;;;;;25.99;73.95;99261.41;1634770;86;21076;-73
2021/07/18 05:59:34;;;;;;;27.13;17.48;;;;;;;26.09;73.91;99260.03;1631670;88;21525;-71
2021/07/18 06:02:01;;;;;;;27.55;18.40;;;;;;;26.11;73.83;99254.35;1641637;87;21942;-72
2021/07/18 06:04:28;;;;;;;25.23;18.85;;;;;;;26.17;73.55;99257.62;1598030;88;21052;-71
2021/07/18 06:06:56;;;;;;;23.35;17.62;;;;;;;26.23;73.68;99260.34;1623372;88;20929;-72
2021/07/18 06:09:22;;;;;;;29.55;16.50;;;;;;;26.31;73.44;99259.30;1614405;87;21089;-72
2021/07/18 06:11:50;;;;;;;27.10;18.35;;;;;;;26.42;73.09;99263.87;1623381;88;21012;-72
2021/07/18 06:14:17;;;;;;;30.80;19.07;;;;;;;26.56;72.74;99262.53;1613072;87;21326;-72
2021/07/18 06:16:44;;;;;;;25.12;18.23;;;;;;;26.72;72.19;99265.95;1659144;85;20973;-72
2021/07/18 06:19:11;;;;;;;23.95;17.52;;;;;;;26.87;71.54;99267.83;1622269;87;20981;-72
2021/07/18 06:21:37;;;;;;;24.32;16.95;;;;;;;26.97;71.04;99267.22;1636578;87;21482;-72
2021/07/18 06:24:05;;;;;;;20.95;17.85;;;;;;;27.07;70.77;99265.21;1622826;87;21033;-71
2021/07/18 06:26:32;;;;;;;27.65;17.57;;;;;;;27.17;70.32;99270.69;1629239;87;21275;-72
2021/07/18 06:29:00;;;;;;;21.62;17.87;;;;;;;27.24;69.98;99277.11;1627586;87;21109;-70
2021/07/18 06:31:27;;;;;;;23.70;17.37;;;;;;;27.33;69.57;99274.91;1647210;86;21013;-72
2021/07/18 06:33:54;;;;;;;23.50;17.55;;;;;;;27.44;69.19;99280.57;1644413;85;20984;-71
2021/07/18 06:36:20;;;;;;;21.00;16.75;;;;;;;27.54;68.87;99286.88;1650786;86;21021;-72
2021/07/18 06:38:46;;;;;;;20.12;18.00;;;;;;;27.62;68.50;99274.77;1649350;85;21570;-71
2021/07/18 06:41:13;;;;;;;23.95;19.02;;;;;;;27.75;67.84;99269.80;1625060;86;21556;-69
2021/07/18 06:43:39;;;;;;;23.45;17.57;;;;;;;27.86;67.33;99272.71;1611337;86;21575;-71
2021/07/18 06:46:06;;;;;;;20.37;17.50;;;;;;;27.94;66.82;99271.63;1651243;86;21624;-71
2021/07/18 06:48:32;;;;;;;21.48;16.07;;;;;;;28.01;66.23;99275.88;1624700;86;21012;-72
2021/07/18 06:50:58;;;;;;;24.72;15.93;;;;;;;28.09;66.01;99282.48;1647975;86;21265;-72
2021/07/18 06:53:25;;;;;;;19.62;16.57;;;;;;;28.15;65.46;99283.76;1633224;86;21537;-72
2021/07/18 06:55:52;;;;;;;20.85;17.57;;;;;;;28.20;65.14;99285.42;1626880;86;21564;-73
2021/07/18 06:58:18;;;;;;;21.50;16.07;;;;;;;28.26;64.83;99282.50;1624076;87;21604;-73
2021/07/18 07:00:44;;;;;;;19.48;15.95;;;;;;;28.32;64.53;99287.92;1647073;86;21542;-73
2021/07/18 07:03:10;;;;;;;20.25;15.15;;;;;;;28.38;64.08;99288.38;1626036;86;21048;-72
2021/07/18 07:05:37;;;;;;;16.57;14.83;;;;;;;28.44;63.54;99293.80;1642468;86;20953;-72
2021/07/18 07:08:04;;;;;;;16.55;13.88;;;;;;;28.49;63.75;99285.16;1640867;87;20996;-72
2021/07/18 07:10:30;;;;;;;19.23;14.07;;;;;;;28.53;63.45;99285.39;1655507;86;21569;-72
2021/07/18 07:12:58;;;;;;;19.67;15.10;;;;;;;28.58;63.67;99285.02;1668410;85;20981;-71
2021/07/18 07:15:26;;;;;;;21.57;15.90;;;;;;;28.65;63.50;99282.13;1639117;87;21011;-72
2021/07/18 07:17:52;;;;;;;23.77;15.28;;;;;;;28.70;63.19;99282.59;1663548;86;21050;-71
2021/07/18 07:20:20;;;;;;;15.30;13.75;;;;;;;28.76;63.24;99278.33;1667746;85;21044;-72
2021/07/18 07:22:46;;;;;;;19.35;14.05;;;;;;;28.83;62.26;99282.53;1642415;87;21069;-71
2021/07/18 07:25:14;;;;;;;18.98;12.37;;;;;;;28.91;60.96;99283.41;1667769;86;21053;-72
2021/07/18 07:27:41;;;;;;;13.25;11.85;;;;;;;28.97;58.51;99284.63;1641274;87;21067;-71
2021/07/18 07:30:10;;;;;;;15.13;11.43;;;;;;;29.05;57.33;99286.30;1640458;86;21033;-73
2021/07/18 07:32:36;;;;;;;15.75;12.88;;;;;;;29.11;57.27;99288.13;1656509;84;21048;-72
2021/07/18 07:35:05;;;;;;;13.72;12.25;;;;;;;29.20;56.90;99289.98;1621241;87;20987;-72
2021/07/18 07:37:31;;;;;;;18.05;12.43;;;;;;;29.26;56.48;99287.84;1640897;87;21017;-72
2021/07/18 07:39:57;;;;;;;16.60;14.87;;;;;;;29.35;55.14;99291.10;1632370;86;21182;-70
2021/07/18 07:42:24;;;;;;;16.02;14.35;;;;;;;29.41;55.28;99297.08;1639333;86;21073;-72
2021/07/18 07:44:51;;;;;;;14.55;11.83;;;;;;;29.45;55.29;99291.77;1649026;86;21134;-72
2021/07/18 07:47:18;;;;;;;15.25;11.22;;;;;;;29.53;55.19;99294.60;1598346;88;21124;-72
2021/07/18 07:49:44;;;;;;;15.13;12.40;;;;;;;29.61;55.08;99299.00;1615943;88;21081;-72
2021/07/18 07:52:11;;;;;;;13.78;11.68;;;;;;;29.70;55.09;99286.97;1624368;86;21047;-72
2021/07/18 07:54:42;;;;;;;15.72;13.13;;;;;;;29.81;55.15;99288.63;1647939;86;21655;-71
2021/07/18 07:57:08;;;;;;;19.57;14.07;;;;;;;29.93;55.20;99290.91;1623299;87;21363;-72
2021/07/18 07:59:34;;;;;;;14.65;13.10;;;;;;;30.00;54.97;99295.88;1640104;86;21057;-74
2021/07/18 08:02:05;;;;;;;14.53;12.85;;;;;;;30.03;54.74;99290.93;1630420;87;21064;-72
2021/07/18 08:04:29;;;;;;;14.03;12.07;;;;;;;30.08;54.56;99286.39;1637679;85;21169;-72
2021/07/18 08:06:57;;;;;;;12.88;11.48;;;;;;;30.18;53.84;99296.75;1641302;86;21036;-72
2021/07/18 08:09:25;;;;;;;18.37;13.00;;;;;;;30.31;53.18;99293.05;1651174;86;20937;-72
2021/07/18 08:11:52;;;;;;;13.72;12.53;;;;;;;30.40;52.79;99294.86;1664213;86;21612;-72
2021/07/18 08:14:18;;;;;;;15.10;13.53;;;;;;;30.49;52.50;99293.12;1656471;86;21029;-72
2021/07/18 08:16:44;;;;;;;15.83;13.78;;;;;;;30.58;52.66;99301.27;1649749;86;21041;-72
2021/07/18 08:19:11;;;;;;;17.15;13.62;;;;;;;30.68;53.32;99298.31;1649937;86;21001;-71
2021/07/18 08:21:40;;;;;;;14.83;13.30;;;;;;;30.70;53.36;99286.20;1660064;85;21592;-71
2021/07/18 08:24:06;;;;;;;13.28;12.03;;;;;;;30.70;53.18;99287.00;1641969;87;21051;-73
2021/07/18 08:26:32;;;;;;;15.95;13.83;;;;;;;30.69;52.46;99295.16;1666763;86;21084;-73
2021/07/18 08:28:59;;;;;;;15.13;13.35;;;;;;;30.66;52.74;99293.14;1669245;86;21502;-72
2021/07/18 08:31:26;;;;;;;20.80;14.35;;;;;;;30.67;52.48;99280.86;1645551;86;21136;-73
2021/07/18 08:33:52;;;;;;;16.07;12.60;;;;;;;30.70;52.55;99279.27;1624960;86;21142;-73
2021/07/18 08:36:21;;;;;;;17.32;13.62;;;;;;;30.72;51.66;99281.06;1642061;87;21044;-72
2021/07/18 08:38:47;;;;;;;14.33;12.43;;;;;;;30.75;51.35;99281.06;1642361;86;21008;-71
2021/07/18 08:41:13;;;;;;;13.40;12.10;;;;;;;30.79;51.29;99279.70;1652735;85;22148;-72
2021/07/18 08:43:40;;;;;;;12.85;11.50;;;;;;;30.83;50.88;99276.91;1676561;85;21503;-71
2021/07/18 08:46:06;;;;;;;14.87;13.38;;;;;;;30.86;50.91;99285.24;1669447;86;21601;-71
2021/07/18 08:48:33;;;;;;;14.25;12.85;;;;;;;30.88;50.67;99283.47;1669307;84;21053;-73
2021/07/18 08:51:00;;;;;;;14.28;12.33;;;;;;;30.90;50.42;99283.25;1647779;86;21101;-73
2021/07/18 08:53:28;;;;;;;16.32;12.82;;;;;;;30.96;50.22;99278.10;1649278;85;21163;-73
2021/07/18 08:55:55;;;;;;;18.15;14.10;;;;;;;30.99;50.07;99273.93;1669096;85;21105;-74
2021/07/18 08:58:22;;;;;;;14.83;13.43;;;;;;;31.01;50.06;99273.55;1669509;86;21514;-71
2021/07/18 09:00:48;;;;;;;14.18;12.80;;;;;;;31.01;49.99;99276.32;1657971;85;21563;-73
2021/07/18 09:03:16;;;;;;;13.25;11.38;;;;;;;30.99;50.38;99269.77;1642228;87;21108;-72
2021/07/18 09:05:46;;;;;;;15.03;12.03;;;;;;;30.97;50.16;99265.22;1642438;87;21108;-72
2021/07/18 09:08:20;;;;;;;12.98;10.85;;;;;;;31.01;49.56;99263.26;1601889;87;21187;-72
2021/07/18 09:10:47;;;;;;;12.65;10.82;;;;;;;31.11;49.16;99266.63;1642429;87;20997;-72
2021/07/18 09:13:18;;;;;;;11.53;10.43;;;;;;;31.22;48.73;99259.69;1646157;86;21074;-72
2021/07/18 09:15:48;;;;;;;14.53;11.30;;;;;;;31.34;46.91;99260.65;1623150;87;21036;-71
2021/07/18 09:18:18;;;;;;;14.53;11.12;;;;;;;31.40;46.25;99259.06;1623057;87;22287;-72
2021/07/18 09:20:47;;;;;;;13.65;9.48;;;;;;;31.45;45.68;99263.42;1623551;87;20996;-71
2021/07/18 09:23:17;;;;;;;12.95;11.65;;;;;;;31.50;44.42;99258.25;1623330;87;21081;-72
2021/07/18 09:25:44;;;;;;;12.07;9.20;;;;;;;31.56;44.17;99258.64;1623590;87;21001;-83
2021/07/18 09:28:17;;;;;;;11.33;10.20;;;;;;;31.61;44.30;99259.62;1651614;86;21078;-71
2021/07/18 09:30:44;;;;;;;;;;;;;;;31.69;44.11;99259.02;1661360;86;21071;-70
2021/07/18 09:33:29;;;;;;;10.43;8.78;;;;;;;31.73;43.61;99261.98;1663955;86;20199;-71
2021/07/18 09:36:11;;;;;;;13.38;10.40;;;;;;;31.81;43.36;99257.97;1663849;85;21465;-71
2021/07/18 09:38:37;;;;;;;11.40;9.87;;;;;;;31.90;43.38;99262.50;1669683;85;20950;-70
2021/07/18 09:41:03;;;;;;;15.45;11.03;;;;;;;31.95;42.30;99254.34;1671497;85;21005;-70
2021/07/18 09:43:30;;;;;;;13.60;8.70;;;;;;;31.96;42.34;99256.73;1671835;85;21132;-70
2021/07/18 09:46:06;;;;;;;11.50;7.67;;;;;;;32.03;40.86;99257.30;1670783;85;21048;-71
2021/07/18 09:48:44;;;;;;;9.68;8.63;;;;;;;32.08;38.98;99253.31;1649792;85;21112;-72
2021/07/18 09:51:11;;;;;;;14.98;8.10;;;;;;;32.13;39.48;99252.92;1656043;86;21345;-71
2021/07/18 09:53:38;;;;;;;10.08;9.18;;;;;;;32.19;39.19;99248.49;1634700;87;21064;-73
2021/07/18 09:56:11;;;;;;;12.23;11.08;;;;;;;32.19;39.21;99251.28;1616182;88;21534;-72
2021/07/18 09:58:54;;;;;;;11.12;9.68;;;;;;;32.21;39.70;99241.94;1616147;88;21522;-75
2021/07/18 10:01:20;;;;;;;11.08;10.15;;;;;;;32.26;39.85;99246.48;1597878;88;21051;-73
2021/07/18 10:03:50;;;;;;;12.88;10.20;;;;;;;32.40;40.12;99242.22;1605545;85;21604;-74
2021/07/18 10:06:19;;;;;;;12.95;10.40;;;;;;;32.51;39.31;99246.34;1636539;85;21100;-74
2021/07/18 10:08:51;;;;;;;11.05;10.00;;;;;;;32.57;39.07;99251.64;1644406;85;21882;-75
2021/07/18 10:11:21;;;;;;;11.38;9.53;;;;;;;32.63;38.33;99248.66;1647749;86;21533;-72
2021/07/18 10:13:51;;;;;;;14.18;9.58;;;;;;;32.69;38.48;99249.81;1628241;87;21671;-73
2021/07/18 10:16:19;;;;;;;12.10;9.35;;;;;;;32.67;38.49;99248.02;1628092;87;21096;-72
2021/07/18 10:18:48;;;;;;;10.55;8.53;;;;;;;32.67;38.87;99254.19;1637935;85;21040;-74
2021/07/18 10:21:20;;;;;;;10.38;9.05;;;;;;;32.63;39.07;99247.83;1628620;86;21029;-74
2021/07/18 10:23:50;;;;;;;13.30;9.37;;;;;;;32.62;39.39;99246.23;1627270;87;21559;-74
2021/07/18 10:26:22;;;;;;;11.97;9.88;;;;;;;32.65;39.12;99234.33;1643625;87;21572;-73
2021/07/18 10:28:50;;;;;;;12.73;10.28;;;;;;;32.81;39.07;99238.17;1620927;88;21549;-74
2021/07/18 10:31:37;;;;;;;11.88;10.68;;;;;;;32.88;39.09;99236.73;1622491;87;21570;-72
2021/07/18 10:34:06;;;;;;;15.03;9.13;;;;;;;32.98;39.65;99234.27;1601148;88;21087;-71
2021/07/18 10:36:34;;;;;;;14.55;11.18;;;;;;;33.12;39.06;99239.70;1620947;87;21078;-72
2021/07/18 10:39:00;;;;;;;13.38;9.48;;;;;;;33.00;41.54;99227.06;1660455;85;21596;-70
2021/07/18 10:44:17;;;;;;;12.60;10.68;;;;;;;32.73;42.79;99238.64;1754209;80;22157;-80
2021/07/18 10:46:53;;;;;;;15.70;11.13;;;;;;;32.53;42.28;99229.20;1777203;80;21353;-81
2021/07/18 10:49:42;;;;;;;14.18;11.50;;;;;;;32.35;43.56;99223.76;1763834;80;21081;-85
2021/07/18 10:52:12;;;;;;;16.55;11.25;;;;;;;32.30;43.41;99226.97;1752064;80;20920;-88
2021/07/18 10:54:42;;;;;;;11.30;10.18;;;;;;;32.33;43.25;99228.33;1729340;81;21090;-86
2021/07/18 10:57:32;;;;;;;17.17;10.35;;;;;;;32.34;42.89;99213.81;1724185;81;20966;-80
2021/07/18 11:00:20;;;;;;;13.58;10.15;;;;;;;32.36;42.00;99217.00;1747926;80;21122;-87
2021/07/18 11:02:47;;;;;;;16.07;11.35;;;;;;;32.21;42.89;99212.71;1712505;80;21009;-87
2021/07/18 11:05:19;;;;;;;19.75;12.47;;;;;;;32.22;43.62;99215.69;1786724;80;20897;-87
2021/07/18 11:07:54;;;;;;;12.93;11.38;;;;;;;32.26;43.05;99214.47;1749752;82;21096;-91
2021/07/18 11:10:23;;;;;;;16.65;10.28;;;;;;;32.30;41.80;99219.41;1693472;83;21090;-79
2021/07/18 11:13:00;;;;;;;11.28;9.48;;;;;;;32.34;42.33;99216.00;1751944;81;21239;-82
2021/07/18 11:15:32;;;;;;;21.55;11.38;;;;;;;32.40;42.64;99210.80;1751358;81;20955;-85
2021/07/18 11:18:06;;;;;;;14.83;10.58;;;;;;;32.49;43.50;99200.59;1751905;81;21002;-89
2021/07/18 11:20:53;;;;;;;16.77;10.98;;;;;;;32.55;42.67;99208.71;1751308;81;21089;-82
2021/07/18 11:23:31;;;;;;;13.35;11.20;;;;;;;32.53;42.97;99195.19;1752163;81;21582;-88
2021/07/18 11:26:08;;;;;;;14.30;11.73;;;;;;;32.63;43.15;99199.92;1751929;81;21742;-82